Historyczne dane pomiarowe

Dodano dane terminowe – wersja testowa.

Dane z okresu 1951-2019

Wersja bazy: 1.34 [2019-03-16, lista zmian], aktualizacja planowana na 2019-04-15

Dane meteo z obszaru Polski uzyskane na podstawie danych udostępnionych przez Instytut Meteorologii i Gospodarki Wodnej – Państwowy Instytut Badawczy.

 

Wybierz Datę:    

       

TemperaturaWilgotnośćWiatrCiśnienieOpadyŚniegCzas trwania zjawisk
 Stacja t tx tn tng RH VA  wxwx mslp ppp RRR   cm mm wxwxwxwxwxwxwx
1969-06-13 10.2 14.5 6.9- 67.0 8.3 2.0 6.0 0.0 0.0- 837.8 0.0 0.0 0.0- 0.0 15.1-------
1969-06-14 10.8 14.1 8.9- 76.8 9.9 4.9 4.3 0.0 0.0- 835.3 11.6 11.6 0.0- 0.0 6.1 2.8----- 5.1
1969-06-15 10.7 12.7 9.2- 79.8 10.3 4.8 5.5 0.0 0.0- 833.3 0.8 0.0 0.8- 0.0 7.1 1.0-- 0.5-- 5.3
1969-06-16 10.4 13.2 8.4- 83.4 10.5 4.9 5.6 1.3 0.0- 835.4 0.0 0.0 0.0- 0.0 5.4 0.3-- 2.3-- 4.9
1969-06-17 10.5 12.5 9.0- 88.6 11.2 5.1 7.4 7.0 0.0- 838.0 0.0 0.0 0.0- 0.0 6.7 1.6-- 10.3 5.0- 1.0
1969-06-18 12.0 15.2 8.4- 81.0 11.4 4.8 4.9 4.7 0.5- 836.6 0.2 0.0 0.2- 0.0 8.7--- 1.7 6.0--
1969-06-19 9.9 12.6 7.9- 99.9 12.2 7.9 9.5 7.2 5.3- 830.9 6.6 1.1 5.5- 0.0 0.5 5.4-- 24.0---
1969-06-20 6.9 9.3 4.7-100.0 10.0 8.0 9.5 15.5 0.0- 830.3 23.8 7.8 16.0- 0.0 0.0 23.5-- 24.0---
1969-06-21 4.3 5.2 3.1- 98.4 8.2 7.4 17.0 24.0 19.7- 832.1 1.6 1.6 0.0- 0.0 0.1 10.7-- 19.0---
1969-06-22 7.9 11.7 4.7- 88.8 9.5 6.0 11.8 12.5 6.5- 837.6 0.0 0.0 0.0- 0.0 4.5--- 13.1---
1969-06-23 10.5 14.3 6.7- 85.0 10.9 4.6 8.0 13.2 1.9- 838.1 1.0 0.0 1.0- 0.0 8.2--- 10.1---
1969-06-24 11.4 13.6 10.3- 98.6 13.3 7.8 18.0 23.2 7.5- 833.4 35.3 0.1 35.2- 0.0 0.8 2.1-- 19.3-- 3.8
1969-06-25 7.0 13.0 3.8- 97.8 9.9 7.3 9.1 11.8 2.0- 833.8 19.2 0.6 18.6- 0.0 0.0 0.8-- 17.8 0.5--
1969-06-26 5.5 7.2 4.0- 96.5 8.7 5.8 13.5 24.0 0.0- 836.6 9.0 8.8 0.2- 0.0 4.0 9.3-- 13.3 2.0--
1969-06-27 7.0 10.9 3.0- 81.9 8.2 4.3 8.1 4.5 0.0- 841.7 6.8 1.2 5.6- 0.0 12.1 1.8-- 6.6 5.5- 0.6
1969-06-28 5.7 7.9 4.3-100.0 9.2 8.0 10.5 14.3 8.8- 839.7 11.3 6.8 4.5- 0.0 0.0 6.7-- 24.0---
1969-06-29 3.1 5.2 1.7- 93.4 7.2 6.5 9.6 8.5 5.3- 841.7 1.5 0.0 1.5- 0.0 6.2 5.2-- 10.2---
1969-06-30 2.4 4.2 0.6- 97.0 7.0 6.9 3.8 0.0 0.0- 839.3 1.1 1.1 0.0- 0.0 1.9 8.3- 2.2 17.1 2.0--
1969-07-01 6.2 9.0 2.5- 73.6 7.0 2.5 2.3 0.0 0.0- 840.9 0.0 0.0 0.0- 0.0 11.5---- 5.5--
1969-07-02 8.6 11.8 6.0- 83.9 9.5 5.6 6.6 1.8 0.0- 841.1 0.0 0.0 0.0- 0.0 3.7 0.1--- 4.0--
1969-07-03 10.8 13.2 8.9- 86.8 11.3 5.6 6.3 0.0 0.0- 843.0 2.9 2.9 0.0- 0.0 6.3 0.6-- 4.3 8.0--
1969-07-04 9.9 12.6 9.2- 92.6 11.3 6.5 10.3 15.2 3.3- 843.4 0.0 0.0 0.0- 0.0 2.2 0.1-- 3.4---
1969-07-05 10.6 13.7 7.0- 82.1 10.7 4.0 7.6 6.3 0.0- 842.3 0.0 0.0 0.0- 0.0 10.3--- 2.3 5.0--
1969-07-06 11.6 13.6 8.9- 87.8 11.9 7.5 4.8 0.0 0.0- 840.9 26.0 22.9 3.1- 0.0 0.4 6.3-- 6.1-- 8.7
1969-07-07 10.4 12.6 9.3- 99.1 12.5 7.5 13.5 19.5 8.8- 835.7 2.1 0.9 1.2- 0.0 1.1 3.4-- 21.8-- 1.7
1969-07-08 2.8 9.3 0.9- 96.9 7.3 7.6 6.5 2.7 0.0- 835.5 0.0 0.0 0.0- 0.0 0.0 0.6-- 24.0---
1969-07-09 3.1 5.0 1.0- 89.8 6.9 6.1 8.0 8.5 0.0- 836.9 0.7 0.7 0.0- 0.0 2.6 1.5-- 13.7---
1969-07-10 2.5 4.8 0.4- 96.8 7.1 7.1 4.6 1.8 0.0- 840.2 3.4 2.9 0.5- 0.0 0.8 2.5 0.3 0.2 21.5---
1969-07-11 2.3 4.7 0.7- 98.0 7.1 7.5 8.9 9.8 0.0- 841.5 8.8 3.1 5.7- 0.0 4.1 3.0- 0.5 20.6---
1969-07-12 2.6 5.1 0.1- 98.8 7.3 7.8 9.9 11.7 8.8- 840.8 0.8 0.2 0.6- 0.0 2.6 0.7- 2.5 24.0---
306.2 ms

 

Źródłem pochodzenia danych jest Instytut Meteorologii i Gospodarki Wodnej – Państwowy Instytut Badawczy. Dane Instytutu Meteorologii i Gospodarki Wodnej – Państwowego Instytutu Badawczego zostały przetworzone.

Dane źródłowe można odnaleźć na stronie https://dane.imgw.pl